AirNav   Pilot Hours Calculator
 
 1366 users online  

TS50 Austinia Airport
Texas City, Texas, USA

GOING TO TEXAS CITY?


FAA INFORMATION EFFECTIVE 31 JANUARY 2019

Location

FAA Identifier: TS50
Lat/Long: 29-25-02.8360N / 094-59-53.7330W
29-25.047267N / 094-59.895550W
29.4174544 / -94.9982592
(estimated)
Elevation: 15 ft. / 5 m (estimated)
Variation: 06E (1985)
From city: 5 miles NW of TEXAS CITY, TX
Time zone: UTC -6 (UTC -5 during Daylight Saving Time)
Zip code: 77590

Airport Operations

Airport use: Private use. Permission required prior to landing
Activation date: 05/1979
Control tower: no
ARTCC: HOUSTON CENTER
FSS: MONTGOMERY COUNTY FLIGHT SERVICE STATION
Attendance: UNATNDD
Wind indicator: yes
Segmented circle: no

Airport Communications

WX ASOS at GLS (12 nm SE): 119.275 (409-740-9248)
WX ASOS at LVJ (14 nm NW): 118.525 (281-992-1853)

Nearby radio navigation aids

VOR radial/distance  VOR name  Freq  Var
VUHr316/11.2SCHOLES VOR/DME113.0006E
MHFr232/15.2TRINITY VOR/DME113.6007E
HUBr130/20.4HOBBY VOR/DME117.1005E
IAHr146/37.1HUMBLE VORTAC116.6005E

 
NDB name  Hdg/Dist  Freq  Var  ID
GALVESTON284/13.620608EGLS --. .-.. ...
NIXIN157/36.432605EBVP -... ...- .--.

Airport Services

Runway Information

Runway N/S

Dimensions: 2150 x 100 ft. / 655 x 30 m
Surface: turf
RUNWAY N  RUNWAY S
Traffic pattern: leftleft
Obstructions: 20 ft. trees30 ft. pline

Airport Ownership and Management from official FAA records

Ownership: Privately-owned
Owner: C MICHAEL ORR
2008 TEXAS AVE
TEXAS CITY, TX 77590
Phone 409-948-3461
Manager: C MICHAEL ORR
2008 TEXAS AVE
TEXAS CITY, TX 77590
Phone 409-948-3461

Airport Operational Statistics

Aircraft based on the field: 1
Single engine airplanes: 1
    

Instrument Procedures

There are no published instrument procedures at TS50.

Some nearby airports with instrument procedures:

KGLS - Scholes International Airport at Galveston (12 nm SE)
KEFD - Ellington Airport (14 nm NW)
KLVJ - Pearland Regional Airport (14 nm NW)
T41 - La Porte Municipal Airport (15 nm N)
KHOU - William P Hobby Airport (20 nm NW)
 
Loc | Ops | Rwys | IFR | FBO | Links
Com | Nav | Svcs | Stats | Notes
Area around TS50 (Austinia Airport)
 
Road maps at: MapQuest Bing Google
 
Aerial photo
No photo
 
Sectional chart

 
Airport distance calculator
Flying to Austinia Airport? Find the distance to fly.

From to TS50

Sunrise and sunset
Times for 15-Feb-2019
 Local
(UTC-6)
 Zulu
(UTC)
Morning civil twilight06:3612:36
Sunrise07:0013:00
Sunset18:0800:08
Evening civil twilight18:3300:33

Current date and time
Zulu (UTC)  15-Feb-2019 20:05:54
Local (UTC-6)  15-Feb-2019 14:05:54
 
METAR
KGLS 
11nm SE 
151952Z 20008KT 5SM BR BKN009 OVC029 19/18 A2978 RMK AO2 SLP086 T01940178
KEFD 
14nm NW 
151950Z 21011KT 7SM BKN025 BKN250 24/18 A2978
KLVJ 
14nm NW 
151953Z AUTO 22010KT 10SM BKN024 23/18 A2978 RMK AO2 SLP082 T02330183
KHOU 
20nm NW 
151953Z 19011G18KT 10SM SCT022 BKN250 24/17 A2975 RMK AO2 SLP080 T02390172
TAF
KGLS 
11nm SE 
151816Z 1518/1618 18012KT 5SM BR BKN025 FM152100 18011KT 6SM HZ BKN045 BKN250 FM160200 19010KT 3SM BR BKN007 OVC015 FM160600 19008KT 1/2SM FG OVC002 FM161600 16008KT 4SM BR SCT003 OVC007
KEFD 
14nm NW 
151330Z 1513/1618 19006KT 3200 BR BKN005 QNH2980INS BECMG 1517/1518 22010G15KT 9999 NSW BKN010 QNH2970INS BECMG 1519/1520 21012G18KT 9999 SCT020 QNH2969INS BECMG 1523/1524 20012KT 9999 SKC QNH2970INS BECMG 1604/1605 21009KT 8000 BR OVC006 QNH2973INS BECMG 1617/1618 18009KT 9999 NSW BKN010 OVC070 QNH2976INS TX24/1520Z TN16/1513Z
KHOU 
20nm NW 
151757Z 1518/1618 20014KT P6SM OVC025 FM152100 20011KT P6SM SCT025 BKN250 FM160200 VRB03KT P6SM SCT007 BKN012 FM160400 19006KT 5SM BR OVC007 FM160900 VRB04KT 1SM BR OVC003 FM161500 15005KT 5SM BR OVC008
NOTAMs
Click for the latest NOTAMs
NOTAMs are issued by the DoD/FAA and will open in a separate window not controlled by AirNav.

 

 
 

Would you like to see your business listed on this page?

 If your business provides an interesting product or service to pilots, flight crews, aircraft, or users of the Austinia Airport, you should consider listing it here.  To start the listing process, click on the button below
 
Add a business
 

Other Pages about Austinia Airport

Update a link
 
Copyright © AirNav, LLC. All rights reserved. Privacy Policy  Contact